Time;durP1;ratioP1;P1;durP2;ratioP2;P2;SDS_P1;SDS_P2;PMS_P1;PMS_P2;Temp;Humidity;BMP_temperature;BMP_pressure;BME280_temperature;BME280_humidity;BME280_pressure;Samples;Min_cycle;Max_cycle;Signal;HPM_P1;HPM_P2
2023/10/18 00:01:27;;;;;;;;;;;5.90;99.90;;;;;;4961502;28;19968;-71
2023/10/18 00:03:54;;;;;;;;;;;5.80;99.90;;;;;;4966575;28;19914;-71
2023/10/18 00:06:22;;;;;;;;;;;5.80;99.90;;;;;;4966048;28;19972;-71
2023/10/18 00:08:49;;;;;;;;;;;5.80;99.90;;;;;;4967838;28;20380;-71
2023/10/18 00:11:15;;;;;;;;;;;5.80;99.90;;;;;;4968321;28;19965;-72
2023/10/18 00:13:41;;;;;;;;;;;5.70;99.90;;;;;;4967852;28;19929;-72
2023/10/18 00:16:07;;;;;;;;;;;5.70;99.90;;;;;;4965625;28;20029;-70
2023/10/18 00:18:33;;;;;;;;;;;5.60;99.90;;;;;;4961892;28;19914;-72
2023/10/18 00:21:00;;;;;;;;;;;5.70;99.90;;;;;;4964969;28;19964;-72
2023/10/18 00:23:26;;;;;;;;;;;5.60;99.90;;;;;;4959798;28;19919;-71
2023/10/18 00:25:52;;;;;;;;;;;5.60;99.90;;;;;;4959044;28;20033;-71
2023/10/18 00:28:19;;;;;;;;;;;5.60;99.90;;;;;;4959977;28;19992;-71
2023/10/18 00:30:45;;;;;;;;;;;5.70;99.90;;;;;;4964742;28;19969;-70
2023/10/18 00:33:11;;;;;;;;;;;5.60;99.90;;;;;;4968433;28;19960;-72
2023/10/18 00:35:39;;;;;;;;;;;5.60;99.90;;;;;;4963749;28;19921;-70
2023/10/18 00:38:07;;;;;;;;;;;5.60;99.90;;;;;;4962135;28;19914;-72
2023/10/18 00:40:33;;;;;;;;;;;5.60;99.90;;;;;;4942065;28;20274;-71
2023/10/18 00:43:04;;;;;;;;;;;5.60;99.90;;;;;;4964461;28;20000;-71
2023/10/18 00:45:31;;;;;;;;;;;5.50;99.90;;;;;;4964789;28;19918;-71
2023/10/18 00:48:05;;;;;;;;;;;5.50;99.90;;;;;;4962487;28;20333;-70
2023/10/18 00:50:31;;;;;;;;;;;5.50;99.90;;;;;;4965164;28;19982;-71
2023/10/18 00:52:57;;;;;;;;;;;5.50;99.90;;;;;;4962391;28;19969;-72
2023/10/18 00:55:23;;;;;;;;;;;5.40;99.90;;;;;;4965594;28;19914;-75
2023/10/18 00:57:49;;;;;;;;;;;5.40;99.90;;;;;;4964384;28;20108;-71
2023/10/18 01:00:19;;;;;;;;;;;5.40;99.90;;;;;;4964147;28;20397;-71
2023/10/18 01:02:48;;;;;;;;;;;5.40;99.90;;;;;;4969515;28;19914;-71
2023/10/18 01:05:15;;;;;;;;;;;5.30;99.90;;;;;;4968109;28;19918;-72
2023/10/18 01:07:42;;;;;;;;;;;5.40;99.90;;;;;;4964383;28;20310;-74
2023/10/18 01:10:09;;;;;;;;;;;5.30;99.90;;;;;;4962912;28;19976;-72
2023/10/18 01:12:37;;;;;;;;;;;5.30;99.90;;;;;;4965341;28;19914;-75
2023/10/18 01:15:06;;;;;;;;;;;5.30;99.90;;;;;;4966243;28;19921;-70
2023/10/18 01:17:36;;;;;;;;;;;5.40;99.90;;;;;;4964577;28;19971;-72
2023/10/18 01:20:13;;;;;;;;;;;5.40;99.90;;;;;;4959174;28;19910;-71
2023/10/18 01:22:39;;;;;;;;;;;5.30;99.90;;;;;;4962209;28;19911;-72
2023/10/18 01:25:09;;;;;;;;;;;5.30;99.90;;;;;;4961221;28;19918;-72
2023/10/18 01:27:35;;;;;;;;;;;5.30;99.90;;;;;;4964661;28;19925;-71
2023/10/18 01:30:00;;;;;;;;;;;5.30;99.90;;;;;;4959448;28;19910;-75
2023/10/18 01:32:26;;;;;;;;;;;5.30;99.90;;;;;;4966854;28;19928;-70
2023/10/18 01:34:52;;;;;;;;;;;5.40;99.90;;;;;;4966976;28;19918;-71
2023/10/18 01:37:20;;;;;;;;;;;5.30;99.90;;;;;;4959784;28;19914;-70
2023/10/18 01:39:46;;;;;;;;;;;5.40;99.90;;;;;;4965748;28;20357;-70
2023/10/18 01:42:13;;;;;;;;;;;5.40;99.90;;;;;;4959371;28;19914;-70
2023/10/18 01:44:39;;;;;;;;;;;5.30;99.90;;;;;;4958593;28;19965;-70
2023/10/18 01:47:08;;;;;;;;;;;5.30;99.90;;;;;;4964970;28;19953;-71
2023/10/18 01:49:43;;;;;;;;;;;5.30;99.90;;;;;;4954860;28;19921;-71
2023/10/18 01:52:11;;;;;;;;;;;5.30;99.90;;;;;;4962959;28;19949;-71
2023/10/18 01:54:38;;;;;;;;;;;5.40;99.90;;;;;;4959538;28;20862;-75
2023/10/18 01:57:06;;;;;;;;;;;5.40;99.90;;;;;;4951950;28;19921;-75
2023/10/18 01:59:34;;;;;;;;;;;5.40;99.90;;;;;;4962654;28;19973;-70
2023/10/18 02:02:06;;;;;;;;;;;5.30;99.90;;;;;;4957018;28;20362;-74
2023/10/18 02:04:36;;;;;;;;;;;5.30;99.90;;;;;;4967883;28;19913;-75
2023/10/18 02:07:02;;;;;;;;;;;5.30;99.90;;;;;;4955503;28;19969;-72
2023/10/18 02:09:36;;;;;;;;;;;5.30;99.90;;;;;;4966045;28;20336;-72
2023/10/18 02:12:07;;;;;;;;;;;5.30;99.90;;;;;;4957973;28;19918;-74
2023/10/18 02:14:33;;;;;;;;;;;5.30;99.90;;;;;;4965196;28;19914;-71
2023/10/18 02:16:59;;;;;;;;;;;5.30;99.90;;;;;;4959545;28;20286;-71
2023/10/18 02:19:26;;;;;;;;;;;5.20;99.90;;;;;;4963550;28;19956;-71
2023/10/18 02:21:52;;;;;;;;;;;5.20;99.90;;;;;;4958930;28;19918;-71
2023/10/18 02:24:18;;;;;;;;;;;5.20;99.90;;;;;;4964365;28;19910;-71
2023/10/18 02:27:00;;;;;;;;;;;5.20;99.90;;;;;;4958649;28;20096;-70
2023/10/18 02:29:27;;;;;;;;;;;5.20;99.90;;;;;;4957492;28;19918;-70
2023/10/18 02:31:56;;;;;;;;;;;5.20;99.90;;;;;;4964363;28;19924;-74
2023/10/18 02:34:25;;;;;;;;;;;5.10;99.90;;;;;;4966215;28;19918;-70
2023/10/18 02:36:52;;;;;;;;;;;5.20;99.90;;;;;;4958639;28;19972;-70
2023/10/18 02:39:27;;;;;;;;;;;5.10;99.90;;;;;;4965788;28;19910;-72
2023/10/18 02:41:55;;;;;;;;;;;5.10;99.90;;;;;;4959201;28;19989;-71
2023/10/18 02:44:22;;;;;;;;;;;5.10;99.90;;;;;;4961540;28;20476;-72
2023/10/18 02:46:54;;;;;;;;;;;5.00;99.90;;;;;;4963003;28;19925;-71
2023/10/18 02:49:22;;;;;;;;;;;5.00;99.90;;;;;;4962363;28;20270;-71
2023/10/18 02:51:48;;;;;;;;;;;4.90;99.90;;;;;;4962374;28;20285;-71
2023/10/18 02:56:39;;;;;;;;;;;4.90;99.90;;;;;;4964538;28;19914;-73
2023/10/18 02:59:07;;;;;;;;;;;4.90;99.90;;;;;;4966132;28;19942;-72
2023/10/18 03:01:34;;;;;;;;;;;4.90;99.90;;;;;;4965172;28;20004;-71
2023/10/18 03:04:08;;;;;;;;;;;4.90;99.90;;;;;;4963341;28;20485;-72
2023/10/18 03:06:35;;;;;;;;;;;4.90;99.90;;;;;;4960318;28;19917;-71
2023/10/18 03:09:00;;;;;;;;;;;4.80;99.90;;;;;;4967104;28;19918;-73
2023/10/18 03:11:27;;;;;;;;;;;4.80;99.90;;;;;;4958279;28;19969;-71
2023/10/18 03:13:57;;;;;;;;;;;4.80;99.90;;;;;;4963828;28;19993;-72
2023/10/18 03:19:09;;;;;;;;;;;4.70;99.90;;;;;;4954946;28;19914;-71
2023/10/18 03:21:35;;;;;;;;;;;4.70;99.90;;;;;;4959395;28;19945;-73
2023/10/18 03:24:01;;;;;;;;;;;4.70;99.90;;;;;;4962996;28;20004;-71
2023/10/18 03:26:37;;;;;;;;;;;4.70;99.90;;;;;;4960171;28;19926;-71
2023/10/18 03:29:11;;;;;;;;;;;4.70;99.90;;;;;;4960492;28;19910;-71
2023/10/18 03:31:47;;;;;;;;;;;4.70;99.90;;;;;;4962489;28;19920;-71
2023/10/18 03:34:19;;;;;;;;;;;4.70;99.90;;;;;;4963191;28;20534;-71
2023/10/18 03:36:53;;;;;;;;;;;4.70;99.90;;;;;;4960758;28;19930;-72
2023/10/18 03:39:21;;;;;;;;;;;4.60;99.90;;;;;;4961905;28;19910;-71
2023/10/18 03:41:49;;;;;;;;;;;4.60;99.90;;;;;;4948496;28;19913;-71
2023/10/18 03:44:20;;;;;;;;;;;4.60;99.90;;;;;;4946569;28;19914;-71
2023/10/18 03:52:16;;;;;;;;;;;4.60;99.90;;;;;;4962829;28;20050;-71
2023/10/18 03:57:37;;;;;;;;;;;4.50;99.90;;;;;;4958686;28;19921;-71
2023/10/18 04:02:52;;;;;;;;;;;4.50;99.90;;;;;;4964007;28;20482;-70
2023/10/18 04:05:40;;;;;;;;;;;4.50;99.90;;;;;;4965482;28;19918;-71
2023/10/18 04:08:07;;;;;;;;;;;4.50;99.90;;;;;;4962121;28;19933;-71
2023/10/18 04:10:36;;;;;;;;;;;4.50;99.90;;;;;;4961401;28;19918;-71
2023/10/18 04:13:02;;;;;;;;;;;4.50;99.90;;;;;;4964583;28;19918;-71
2023/10/18 04:15:32;;;;;;;;;;;4.50;99.90;;;;;;4961638;28;19914;-73
2023/10/18 04:20:35;;;;;;;;;;;4.50;99.90;;;;;;4966660;28;19914;-72
2023/10/18 04:23:14;;;;;;;;;;;4.50;99.90;;;;;;4962250;28;19969;-71
2023/10/18 04:25:42;;;;;;;;;;;4.50;99.90;;;;;;4965645;28;19933;-71
2023/10/18 04:28:10;;;;;;;;;;;4.50;99.90;;;;;;4964419;28;20867;-72
2023/10/18 04:30:38;;;;;;;;;;;4.50;99.90;;;;;;4965156;28;19918;-74
2023/10/18 04:33:24;;;;;;;;;;;4.40;99.90;;;;;;4963907;28;19945;-71
2023/10/18 04:35:52;;;;;;;;;;;4.50;99.90;;;;;;4962251;28;19924;-72
2023/10/18 04:38:30;;;;;;;;;;;4.40;99.90;;;;;;4968005;28;20061;-71
2023/10/18 04:41:09;;;;;;;;;;;4.40;99.90;;;;;;4964763;28;19968;-71
2023/10/18 04:43:34;;;;;;;;;;;4.40;99.90;;;;;;4964630;28;19910;-71
2023/10/18 04:46:07;;;;;;;;;;;4.40;99.90;;;;;;4966283;28;19944;-71
2023/10/18 04:54:02;;;;;;;;;;;4.50;99.90;;;;;;4959786;28;19914;-71
2023/10/18 04:56:34;;;;;;;;;;;4.40;99.90;;;;;;4961888;28;19976;-72
2023/10/18 04:59:00;;;;;;;;;;;4.40;99.90;;;;;;4963025;28;20005;-72
2023/10/18 05:01:34;;;;;;;;;;;4.50;99.90;;;;;;4963282;28;20425;-69
2023/10/18 05:04:18;;;;;;;;;;;4.50;99.90;;;;;;4963098;28;19914;-67
2023/10/18 05:06:44;;;;;;;;;;;4.70;99.90;;;;;;4961301;28;21363;-69
2023/10/18 05:09:12;;;;;;;;;;;4.70;99.90;;;;;;4966357;28;19917;-68
2023/10/18 05:11:47;;;;;;;;;;;4.70;99.90;;;;;;4946522;28;19936;-69
2023/10/18 05:14:19;;;;;;;;;;;4.70;99.90;;;;;;4965578;28;20837;-68
2023/10/18 05:16:46;;;;;;;;;;;4.70;99.90;;;;;;4962220;28;19925;-67
2023/10/18 05:19:13;;;;;;;;;;;4.70;99.90;;;;;;4965158;28;20013;-68
2023/10/18 05:21:39;;;;;;;;;;;4.70;99.90;;;;;;4966965;28;19910;-71
2023/10/18 05:24:05;;;;;;;;;;;4.70;99.90;;;;;;4959951;28;19953;-70
2023/10/18 05:26:33;;;;;;;;;;;4.80;99.90;;;;;;4964745;28;20000;-71
2023/10/18 05:29:01;;;;;;;;;;;4.80;99.90;;;;;;4965353;28;19913;-71
2023/10/18 05:41:59;;;;;;;;;;;5.00;99.90;;;;;;4962259;28;19957;-74
2023/10/18 05:44:25;;;;;;;;;;;5.10;99.90;;;;;;4963806;28;19914;-71
2023/10/18 05:46:50;;;;;;;;;;;5.40;99.90;;;;;;4965053;28;19964;-72
2023/10/18 05:49:16;;;;;;;;;;;5.70;99.90;;;;;;4963817;28;19993;-69
2023/10/18 05:51:51;;;;;;;;;;;6.30;99.90;;;;;;4961333;28;20171;-71
2023/10/18 05:54:19;;;;;;;;;;;6.70;99.90;;;;;;4965619;28;19917;-71
2023/10/18 05:56:49;;;;;;;;;;;7.10;99.90;;;;;;4964874;28;20266;-69
2023/10/18 06:01:47;;;;;;;;;;;7.90;99.90;;;;;;4967192;28;19917;-72
2023/10/18 06:04:14;;;;;;;;;;;8.50;99.90;;;;;;4965571;28;20033;-72
2023/10/18 06:06:40;;;;;;;;;;;8.90;99.90;;;;;;4961299;28;21063;-71
2023/10/18 06:09:09;;;;;;;;;;;9.20;99.90;;;;;;4965348;28;19917;-70
2023/10/18 06:11:36;;;;;;;;;;;9.50;99.90;;;;;;4962969;28;20436;-71
2023/10/18 06:14:05;;;;;;;;;;;9.90;99.90;;;;;;4963101;28;19910;-71
2023/10/18 06:16:34;;;;;;;;;;;10.40;99.90;;;;;;4960907;28;20349;-76
2023/10/18 06:19:07;;;;;;;;;;;10.70;99.90;;;;;;4963527;28;20276;-68
2023/10/18 06:21:37;;;;;;;;;;;11.20;99.90;;;;;;4961757;28;20473;-71
2023/10/18 06:24:10;;;;;;;;;;;11.30;99.90;;;;;;4964551;28;20129;-74
2023/10/18 06:26:38;;;;;;;;;;;11.60;99.90;;;;;;4962453;28;19968;-78
2023/10/18 06:29:11;;;;;;;;;;;11.60;99.90;;;;;;4962594;28;19917;-72
2023/10/18 06:31:42;;;;;;;;;;;12.00;99.90;;;;;;4965017;28;20343;-72
2023/10/18 06:34:17;;;;;;;;;;;11.80;99.90;;;;;;4959551;28;19942;-75
2023/10/18 06:36:47;;;;;;;;;;;11.40;99.90;;;;;;4962465;28;20333;-73
2023/10/18 06:39:24;;;;;;;;;;;11.50;99.90;;;;;;4963553;28;19961;-73
2023/10/18 06:41:55;;;;;;;;;;;12.40;99.90;;;;;;4958941;28;19910;-75
2023/10/18 06:44:26;;;;;;;;;;;12.70;99.90;;;;;;4961642;28;19981;-72
2023/10/18 06:46:53;;;;;;;;;;;13.00;99.90;;;;;;4961481;28;19957;-71
2023/10/18 06:49:19;;;;;;;;;;;13.10;99.90;;;;;;4964419;28;19956;-70
2023/10/18 06:51:50;;;;;;;;;;;13.00;99.90;;;;;;4962264;28;19914;-70
2023/10/18 06:54:23;;;;;;;;;;;13.10;99.90;;;;;;4963106;28;19910;-71
2023/10/18 06:56:53;;;;;;;;;;;12.80;99.90;;;;;;4964820;28;19914;-72
2023/10/18 06:59:25;;;;;;;;;;;12.80;99.90;;;;;;4965961;28;19964;-71
2023/10/18 07:01:54;;;;;;;;;;;13.70;99.90;;;;;;4961134;28;20598;-71
2023/10/18 07:04:27;;;;;;;;;;;14.10;99.40;;;;;;4965081;28;19910;-70
2023/10/18 07:06:52;;;;;;;;;;;14.40;98.80;;;;;;4963049;28;19918;-71
2023/10/18 07:09:36;;;;;;;;;;;14.10;98.70;;;;;;4963764;28;19937;-74
2023/10/18 07:12:10;;;;;;;;;;;14.00;98.70;;;;;;4961918;28;20347;-71
2023/10/18 07:14:39;;;;;;;;;;;13.70;99.60;;;;;;4961271;28;19920;-77
2023/10/18 07:17:04;;;;;;;;;;;14.10;98.70;;;;;;4964888;28;19910;-73
2023/10/18 07:19:33;;;;;;;;;;;14.20;98.20;;;;;;4963680;28;19989;-71
2023/10/18 07:22:00;;;;;;;;;;;14.30;98.00;;;;;;4961463;28;19914;-74
2023/10/18 07:24:36;;;;;;;;;;;14.70;97.80;;;;;;4962889;28;19918;-75
2023/10/18 07:27:09;;;;;;;;;;;14.50;97.20;;;;;;4965497;28;19910;-71
2023/10/18 07:29:37;;;;;;;;;;;14.00;97.80;;;;;;4961508;28;19918;-72
2023/10/18 07:32:06;;;;;;;;;;;14.70;97.90;;;;;;4969482;28;19918;-72
2023/10/18 07:34:36;;;;;;;;;;;15.40;96.40;;;;;;4967122;28;19910;-71
2023/10/18 07:37:17;;;;;;;;;;;15.80;95.90;;;;;;4956828;28;20380;-72
2023/10/18 07:39:49;;;;;;;;;;;16.40;94.80;;;;;;4967429;28;19914;-72
2023/10/18 07:42:18;;;;;;;;;;;17.00;93.90;;;;;;4958815;28;19918;-71
2023/10/18 07:44:52;;;;;;;;;;;17.70;92.20;;;;;;4967254;28;19928;-72
2023/10/18 07:47:19;;;;;;;;;;;16.80;92.50;;;;;;4963689;28;19917;-71
2023/10/18 07:49:47;;;;;;;;;;;16.40;93.20;;;;;;4963155;28;19914;-69
2023/10/18 07:52:13;;;;;;;;;;;16.50;92.80;;;;;;4968683;28;20901;-71
2023/10/18 07:54:40;;;;;;;;;;;15.90;93.10;;;;;;4963890;28;19916;-74
2023/10/18 07:57:15;;;;;;;;;;;15.60;93.70;;;;;;4966538;28;20364;-73
2023/10/18 07:59:46;;;;;;;;;;;15.20;94.20;;;;;;4967417;28;19969;-72
2023/10/18 08:02:12;;;;;;;;;;;15.60;94.60;;;;;;4968619;28;19910;-72
2023/10/18 08:04:40;;;;;;;;;;;16.60;93.00;;;;;;4971482;28;19945;-71
2023/10/18 08:07:15;;;;;;;;;;;17.10;92.10;;;;;;4951836;28;19914;-74
2023/10/18 08:09:41;;;;;;;;;;;17.80;91.30;;;;;;4967405;28;19914;-71
2023/10/18 08:12:25;;;;;;;;;;;17.20;91.40;;;;;;4962810;28;20103;-71
2023/10/18 08:14:52;;;;;;;;;;;16.80;92.10;;;;;;4969507;28;20935;-71
2023/10/18 08:17:30;;;;;;;;;;;16.70;92.10;;;;;;4968660;28;19999;-71
2023/10/18 08:22:46;;;;;;;;;;;16.80;91.90;;;;;;4964024;28;20440;-71
2023/10/18 08:25:21;;;;;;;;;;;17.00;91.90;;;;;;4968084;28;19914;-72
2023/10/18 08:27:51;;;;;;;;;;;17.00;91.70;;;;;;4967932;28;20288;-70
2023/10/18 08:33:01;;;;;;;;;;;18.80;90.00;;;;;;4966483;28;19924;-71
2023/10/18 08:35:26;;;;;;;;;;;18.10;89.70;;;;;;4964522;28;20393;-72
2023/10/18 08:37:52;;;;;;;;;;;18.40;90.10;;;;;;4964872;28;19914;-71
2023/10/18 08:40:27;;;;;;;;;;;18.30;89.60;;;;;;4967854;28;20001;-71
2023/10/18 08:43:05;;;;;;;;;;;19.10;89.60;;;;;;4964273;28;19910;-72
2023/10/18 08:45:36;;;;;;;;;;;18.90;88.00;;;;;;4967304;28;19922;-72
2023/10/18 08:48:10;;;;;;;;;;;18.70;89.00;;;;;;4968393;28;19914;-71
2023/10/18 08:50:39;;;;;;;;;;;19.80;87.10;;;;;;4965567;28;20562;-72
2023/10/18 08:53:05;;;;;;;;;;;20.20;86.60;;;;;;4962865;28;19918;-72
2023/10/18 08:55:51;;;;;;;;;;;19.70;85.00;;;;;;4966370;28;19910;-70
2023/10/18 08:58:18;;;;;;;;;;;19.70;85.50;;;;;;4966145;28;19913;-72
2023/10/18 09:03:16;;;;;;;;;;;18.90;87.00;;;;;;4968876;28;19918;-71
2023/10/18 09:05:41;;;;;;;;;;;19.70;86.80;;;;;;4968525;28;19917;-72
2023/10/18 09:08:08;;;;;;;;;;;19.70;85.30;;;;;;4960373;28;19914;-71
2023/10/18 09:18:16;;;;;;;;;;;19.90;84.40;;;;;;4961712;28;19924;-71
2023/10/18 09:20:42;;;;;;;;;;;19.90;85.20;;;;;;4966963;28;19914;-71
2023/10/18 09:23:20;;;;;;;;;;;20.70;82.70;;;;;;4961334;28;20065;-72
2023/10/18 09:25:49;;;;;;;;;;;21.00;80.40;;;;;;4968410;28;20004;-70
2023/10/18 09:28:42;;;;;;;;;;;21.80;78.70;;;;;;4959221;28;19921;-68
2023/10/18 09:31:11;;;;;;;;;;;21.80;77.90;;;;;;4962745;28;19910;-69
2023/10/18 09:33:48;;;;;;;;;;;21.30;77.50;;;;;;4963825;28;19922;-69
2023/10/18 09:36:19;;;;;;;;;;;20.20;79.10;;;;;;4968152;28;20481;-70
2023/10/18 09:38:46;;;;;;;;;;;18.40;81.70;;;;;;4965286;28;19976;-70
2023/10/18 09:41:12;;;;;;;;;;;17.80;83.90;;;;;;4961574;28;19914;-71
2023/10/18 09:43:38;;;;;;;;;;;18.70;84.00;;;;;;4964514;28;19911;-71
2023/10/18 09:46:04;;;;;;;;;;;20.20;80.60;;;;;;4964400;28;19918;-70
2023/10/18 09:48:37;;;;;;;;;;;20.40;80.20;;;;;;4961262;28;19910;-66
2023/10/18 09:51:15;;;;;;;;;;;20.00;80.20;;;;;;4962323;28;19910;-69
2023/10/18 09:53:48;;;;;;;;;;;18.50;81.80;;;;;;4962879;28;19915;-71
2023/10/18 09:56:15;;;;;;;;;;;18.40;82.80;;;;;;4965867;28;19918;-70
2023/10/18 09:58:44;;;;;;;;;;;19.50;82.60;;;;;;4963693;28;19911;-70
2023/10/18 10:01:13;;;;;;;;;;;20.20;80.80;;;;;;4964505;28;20409;-70
2023/10/18 10:04:21;;;;;;;;;;;19.60;81.50;;;;;;4966926;28;19961;-69
2023/10/18 10:06:48;;;;;;;;;;;18.80;82.00;;;;;;4963626;28;19910;-67
2023/10/18 10:09:14;;;;;;;;;;;19.60;82.40;;;;;;4968767;28;19989;-66
2023/10/18 10:11:43;;;;;;;;;;;18.50;82.00;;;;;;4961963;28;19945;-68
2023/10/18 10:14:16;;;;;;;;;;;18.80;82.80;;;;;;4964927;28;19920;-67
2023/10/18 10:16:52;;;;;;;;;;;19.50;82.50;;;;;;4962549;28;19914;-67
2023/10/18 10:19:19;;;;;;;;;;;19.50;82.00;;;;;;4965060;28;19937;-68
2023/10/18 10:21:45;;;;;;;;;;;19.40;80.40;;;;;;4963468;28;19945;-68
2023/10/18 10:24:29;;;;;;;;;;;19.70;81.00;;;;;;4962542;28;20005;-69
2023/10/18 10:27:27;;;;;;;;;;;20.00;81.10;;;;;;4965122;28;19910;-65
2023/10/18 10:29:56;;;;;;;;;;;20.70;79.50;;;;;;4919032;28;20290;-70
2023/10/18 10:32:27;;;;;;;;;;;19.80;80.30;;;;;;4966354;28;20414;-67
2023/10/18 10:35:15;;;;;;;;;;;19.20;80.50;;;;;;4964402;28;19960;-69
2023/10/18 10:37:51;;;;;;;;;;;18.20;82.80;;;;;;4957865;28;20326;-68
2023/10/18 10:43:01;;;;;;;;;;;18.80;82.00;;;;;;4962787;28;19918;-70
2023/10/18 10:48:17;;;;;;;;;;;17.80;83.10;;;;;;4963953;28;19921;-68
2023/10/18 10:50:57;;;;;;;;;;;16.40;86.80;;;;;;4963442;28;19960;-67
2023/10/18 10:53:36;;;;;;;;;;;15.90;89.10;;;;;;4962681;28;19922;-67
2023/10/18 10:56:16;;;;;;;;;;;15.90;89.40;;;;;;4962312;28;20135;-67
2023/10/18 10:58:55;;;;;;;;;;;15.60;89.90;;;;;;4943494;28;19957;-72
2023/10/18 11:01:39;;;;;;;;;;;15.50;90.20;;;;;;4965053;28;20502;-68
2023/10/18 11:04:27;;;;;;;;;;;15.40;90.80;;;;;;4956030;28;19976;-68
2023/10/18 11:07:08;;;;;;;;;;;15.10;91.00;;;;;;4952427;28;19910;-68
2023/10/18 11:09:38;;;;;;;;;;;14.90;91.40;;;;;;4962353;28;19996;-68
2023/10/18 11:12:08;;;;;;;;;;;14.30;92.00;;;;;;4959002;28;19980;-69
2023/10/18 11:14:36;;;;;;;;;;;14.20;92.40;;;;;;4947001;28;19914;-67
2023/10/18 11:17:23;;;;;;;;;;;14.20;92.70;;;;;;4963103;28;20369;-67
2023/10/18 11:19:59;;;;;;;;;;;14.30;92.40;;;;;;4961263;28;19960;-68
2023/10/18 11:22:29;;;;;;;;;;;14.40;92.40;;;;;;4941106;28;19958;-70
2023/10/18 11:24:56;;;;;;;;;;;14.40;92.50;;;;;;4961159;28;19918;-68
2023/10/18 11:27:23;;;;;;;;;;;14.20;92.70;;;;;;4962184;28;20684;-68
2023/10/18 11:29:55;;;;;;;;;;;14.20;92.70;;;;;;4964554;28;19964;-69
2023/10/18 11:32:28;;;;;;;;;;;14.40;92.70;;;;;;4962649;28;19922;-70
2023/10/18 11:35:10;;;;;;;;;;;14.50;92.50;;;;;;4961318;28;19914;-69
2023/10/18 11:37:40;;;;;;;;;;;14.30;92.60;;;;;;4959634;28;19968;-72
2023/10/18 11:40:29;;;;;;;;;;;14.20;92.60;;;;;;4960411;28;19986;-68
2023/10/18 11:43:07;;;;;;;;;;;13.90;92.90;;;;;;4958271;28;19947;-69
2023/10/18 11:45:34;;;;;;;;;;;13.80;93.30;;;;;;4962109;28;19922;-68
2023/10/18 11:48:02;;;;;;;;;;;14.00;93.40;;;;;;4958765;28;19914;-68
2023/10/18 11:50:41;;;;;;;;;;;14.10;93.50;;;;;;4959553;28;20704;-66
2023/10/18 11:53:12;;;;;;;;;;;13.90;93.10;;;;;;4958137;28;19925;-70
2023/10/18 11:55:56;;;;;;;;;;;13.50;93.60;;;;;;4962681;28;20191;-66
2023/10/18 11:58:26;;;;;;;;;;;13.30;94.10;;;;;;4960525;28;20000;-71
2023/10/18 12:01:01;;;;;;;;;;;13.50;94.60;;;;;;4960647;28;19918;-68
2023/10/18 12:03:33;;;;;;;;;;;13.90;93.90;;;;;;4964398;28;19925;-65
2023/10/18 12:06:00;;;;;;;;;;;13.80;93.60;;;;;;4963067;28;20024;-68
2023/10/18 12:08:30;;;;;;;;;;;13.70;94.20;;;;;;4958582;28;20473;-68
2023/10/18 12:10:56;;;;;;;;;;;13.90;94.20;;;;;;4962174;28;19910;-69
2023/10/18 12:13:22;;;;;;;;;;;14.00;93.80;;;;;;4960264;28;19922;-68
2023/10/18 12:15:48;;;;;;;;;;;13.90;93.90;;;;;;4963530;28;19921;-67
2023/10/18 12:18:14;;;;;;;;;;;13.90;93.90;;;;;;4961538;28;19918;-68
2023/10/18 12:20:43;;;;;;;;;;;13.90;94.10;;;;;;4957106;28;19937;-68
2023/10/18 12:23:10;;;;;;;;;;;13.60;94.20;;;;;;4961989;28;20389;-69
2023/10/18 12:25:38;;;;;;;;;;;13.70;94.30;;;;;;4958438;28;19999;-67
2023/10/18 12:28:12;;;;;;;;;;;13.70;94.60;;;;;;4962235;28;19961;-69
2023/10/18 12:30:39;;;;;;;;;;;13.50;94.50;;;;;;4960917;28;20365;-68
2023/10/18 12:33:06;;;;;;;;;;;13.50;94.70;;;;;;4960682;28;19925;-69
2023/10/18 12:35:34;;;;;;;;;;;13.50;94.70;;;;;;4965290;28;19914;-69
2023/10/18 12:38:07;;;;;;;;;;;13.40;94.90;;;;;;4961695;28;19914;-68
2023/10/18 12:40:51;;;;;;;;;;;13.50;95.20;;;;;;4960242;28;19968;-68
2023/10/18 12:43:19;;;;;;;;;;;13.50;94.90;;;;;;4964120;28;19910;-69
2023/10/18 12:45:46;;;;;;;;;;;13.30;95.10;;;;;;4960873;28;19929;-69
2023/10/18 12:48:11;;;;;;;;;;;13.30;95.40;;;;;;4964198;28;19957;-67
2023/10/18 12:50:37;;;;;;;;;;;13.20;96.00;;;;;;4942347;28;19914;-69
2023/10/18 12:55:46;;;;;;;;;;;13.20;96.20;;;;;;4961485;28;19925;-68
2023/10/18 12:58:18;;;;;;;;;;;13.30;96.20;;;;;;4963647;28;20674;-68
2023/10/18 13:00:44;;;;;;;;;;;13.30;96.30;;;;;;4960945;28;19952;-68
2023/10/18 13:05:43;;;;;;;;;;;13.20;96.40;;;;;;4962396;28;19957;-67
2023/10/18 13:08:16;;;;;;;;;;;13.20;96.70;;;;;;4962544;28;19914;-70
2023/10/18 13:10:48;;;;;;;;;;;13.10;96.80;;;;;;4966661;28;20142;-70
2023/10/18 13:13:16;;;;;;;;;;;13.00;97.00;;;;;;4960602;28;20183;-68
2023/10/18 13:15:48;;;;;;;;;;;13.00;97.30;;;;;;4967286;28;19910;-70
2023/10/18 13:18:14;;;;;;;;;;;13.10;97.20;;;;;;4941652;28;19918;-73
2023/10/18 13:20:44;;;;;;;;;;;13.00;97.30;;;;;;4967764;28;20325;-74
2023/10/18 13:23:12;;;;;;;;;;;12.90;97.50;;;;;;4966089;28;19910;-74
2023/10/18 13:25:49;;;;;;;;;;;12.90;97.60;;;;;;4965744;28;19984;-75
2023/10/18 13:28:24;;;;;;;;;;;12.90;97.50;;;;;;4967069;28;19969;-74
2023/10/18 13:30:51;;;;;;;;;;;12.90;97.70;;;;;;4969203;28;19914;-76
2023/10/18 13:33:18;;;;;;;;;;;13.00;97.50;;;;;;4965023;28;19921;-72
2023/10/18 13:35:44;;;;;;;;;;;13.00;97.70;;;;;;4968841;28;19925;-76
2023/10/18 13:38:10;;;;;;;;;;;13.00;97.70;;;;;;4966596;28;19910;-74
2023/10/18 13:40:39;;;;;;;;;;;13.10;97.40;;;;;;4962815;28;19929;-75
2023/10/18 13:43:06;;;;;;;;;;;13.10;97.70;;;;;;4963230;28;19969;-75
2023/10/18 13:45:33;;;;;;;;;;;13.10;97.50;;;;;;4960940;28;19929;-73
2023/10/18 13:48:02;;;;;;;;;;;13.10;97.60;;;;;;4965916;28;20365;-73
2023/10/18 13:50:35;;;;;;;;;;;13.10;97.50;;;;;;4961503;28;19989;-72
2023/10/18 13:53:00;;;;;;;;;;;13.00;97.80;;;;;;4966686;28;20008;-77
2023/10/18 13:55:26;;;;;;;;;;;13.00;98.10;;;;;;4965134;28;20009;-72
2023/10/18 13:57:51;;;;;;;;;;;13.00;97.90;;;;;;4964319;28;19924;-72
2023/10/18 14:00:21;;;;;;;;;;;12.90;98.20;;;;;;4960749;28;20538;-71
2023/10/18 14:02:47;;;;;;;;;;;12.90;98.40;;;;;;4965696;28;20007;-74
2023/10/18 14:05:13;;;;;;;;;;;12.80;98.80;;;;;;4965659;28;20594;-73
2023/10/18 14:07:38;;;;;;;;;;;12.80;98.90;;;;;;4941569;28;19918;-72
2023/10/18 14:10:28;;;;;;;;;;;12.90;98.90;;;;;;4965942;28;19910;-72
2023/10/18 14:12:53;;;;;;;;;;;12.90;98.70;;;;;;4963452;28;19914;-74
2023/10/18 14:15:22;;;;;;;;;;;12.80;98.90;;;;;;4966749;28;20257;-79
2023/10/18 14:17:52;;;;;;;;;;;12.80;99.00;;;;;;4964705;28;19917;-75
2023/10/18 14:20:24;;;;;;;;;;;12.80;99.00;;;;;;4957334;28;19915;-75
2023/10/18 14:22:55;;;;;;;;;;;12.90;99.00;;;;;;4964950;28;19914;-74
2023/10/18 14:25:21;;;;;;;;;;;12.90;99.10;;;;;;4965310;28;19921;-74
2023/10/18 14:27:48;;;;;;;;;;;12.90;99.20;;;;;;4964409;28;20341;-73
2023/10/18 14:30:15;;;;;;;;;;;12.90;99.00;;;;;;4964700;28;20016;-73
2023/10/18 14:32:42;;;;;;;;;;;13.00;99.00;;;;;;4964178;28;19921;-75
2023/10/18 14:35:08;;;;;;;;;;;13.00;98.80;;;;;;4965621;28;19914;-76
2023/10/18 14:37:33;;;;;;;;;;;12.90;98.40;;;;;;4960147;28;19965;-72
2023/10/18 14:39:59;;;;;;;;;;;12.80;98.90;;;;;;4966020;28;19914;-72
2023/10/18 14:42:28;;;;;;;;;;;12.80;99.10;;;;;;4962482;28;20255;-74
2023/10/18 14:44:57;;;;;;;;;;;12.70;99.20;;;;;;4970446;28;19926;-73
2023/10/18 14:47:26;;;;;;;;;;;12.60;99.30;;;;;;4963826;28;19918;-72
2023/10/18 14:49:53;;;;;;;;;;;12.60;99.40;;;;;;4964236;28;21511;-71
2023/10/18 14:52:19;;;;;;;;;;;12.50;99.50;;;;;;4963017;28;20309;-75
2023/10/18 14:54:46;;;;;;;;;;;12.50;99.90;;;;;;4962386;28;20811;-76
2023/10/18 14:57:11;;;;;;;;;;;12.40;99.90;;;;;;4948303;28;19914;-73
2023/10/18 14:59:40;;;;;;;;;;;12.40;99.90;;;;;;4961109;28;19914;-75
2023/10/18 15:02:05;;;;;;;;;;;12.40;99.90;;;;;;4962967;28;19921;-73
2023/10/18 15:04:31;;;;;;;;;;;12.40;99.90;;;;;;4963973;28;19910;-76
2023/10/18 15:06:56;;;;;;;;;;;12.30;99.90;;;;;;4964332;28;20246;-73
2023/10/18 15:09:22;;;;;;;;;;;12.30;99.90;;;;;;4964751;28;19918;-71
2023/10/18 15:11:49;;;;;;;;;;;12.20;99.90;;;;;;4960747;28;19914;-72
2023/10/18 15:14:15;;;;;;;;;;;12.20;99.90;;;;;;4968011;28;19921;-74
2023/10/18 15:16:40;;;;;;;;;;;12.10;99.90;;;;;;4961170;28;19914;-75
2023/10/18 15:19:07;;;;;;;;;;;12.10;99.90;;;;;;4964317;28;20377;-77
2023/10/18 15:21:33;;;;;;;;;;;12.10;99.90;;;;;;4965043;28;19922;-73
2023/10/18 15:23:59;;;;;;;;;;;12.00;99.90;;;;;;4963832;28;19921;-72
2023/10/18 15:26:29;;;;;;;;;;;12.00;99.90;;;;;;4965933;28;19910;-75
2023/10/18 15:28:55;;;;;;;;;;;11.90;99.90;;;;;;4944212;28;20314;-73
2023/10/18 15:31:22;;;;;;;;;;;11.90;99.90;;;;;;4968537;28;19925;-74
2023/10/18 15:33:48;;;;;;;;;;;11.90;99.90;;;;;;4966521;28;20409;-74
2023/10/18 15:36:18;;;;;;;;;;;11.90;99.90;;;;;;4969547;28;19996;-74
2023/10/18 15:38:44;;;;;;;;;;;11.90;99.90;;;;;;4964944;28;20379;-76
2023/10/18 15:41:10;;;;;;;;;;;11.80;99.90;;;;;;4961314;28;19918;-63